createdAt,value
2019-03-12T00:01:06.713Z,20.97
2019-03-12T00:03:36.066Z,27.27
2019-03-12T00:06:05.568Z,15.67
2019-03-12T00:08:34.724Z,17.00
2019-03-12T00:11:04.081Z,21.07
2019-03-12T00:13:33.209Z,19.33
2019-03-12T00:16:02.227Z,20.00
2019-03-12T00:18:32.041Z,19.93
2019-03-12T00:21:01.107Z,21.27
2019-03-12T00:23:30.157Z,17.67
2019-03-12T00:25:59.548Z,17.57
2019-03-12T00:28:28.566Z,17.83
2019-03-12T00:30:57.987Z,20.30
2019-03-12T00:33:27.369Z,22.53
2019-03-12T00:35:56.373Z,21.60
2019-03-12T00:38:25.805Z,16.00
2019-03-12T00:40:54.990Z,25.50
2019-03-12T00:43:24.372Z,17.47
2019-03-12T00:45:53.474Z,16.37
2019-03-12T00:48:22.475Z,17.87
2019-03-12T00:50:51.517Z,21.90
2019-03-12T00:53:20.611Z,17.70
2019-03-12T00:55:49.945Z,19.07
2019-03-12T00:58:18.998Z,24.43
2019-03-12T01:00:48.009Z,20.97
2019-03-12T01:03:17.031Z,16.97
2019-03-12T01:05:46.091Z,17.73
2019-03-12T01:08:15.505Z,23.40
2019-03-12T01:10:45.423Z,21.13
2019-03-12T01:13:20.582Z,17.90
2019-03-12T01:15:49.679Z,24.27
2019-03-12T01:18:18.717Z,16.63
2019-03-12T01:20:47.843Z,21.27
2019-03-12T01:23:19.632Z,19.37
2019-03-12T01:25:49.737Z,20.20
2019-03-12T01:28:18.758Z,20.23
2019-03-12T01:30:48.127Z,20.93
2019-03-12T01:33:17.197Z,14.87
2019-03-12T01:35:46.540Z,20.30
2019-03-12T01:38:15.625Z,18.93
2019-03-12T01:40:45.015Z,23.30
2019-03-12T01:43:14.065Z,15.57
2019-03-12T01:45:43.129Z,22.70
2019-03-12T01:48:12.167Z,22.47
2019-03-12T01:50:41.583Z,16.90
2019-03-12T01:53:10.647Z,20.57
2019-03-12T01:55:40.121Z,17.80
2019-03-12T01:58:09.168Z,24.20
2019-03-12T02:00:38.645Z,22.53
2019-03-12T02:03:07.766Z,15.80
2019-03-12T02:05:36.767Z,17.73
2019-03-12T02:08:06.110Z,16.97
2019-03-12T02:10:35.430Z,17.17
2019-03-12T02:13:04.721Z,17.87
2019-03-12T02:15:34.380Z,18.73
2019-03-12T02:18:03.835Z,15.40
2019-03-12T02:20:32.934Z,15.13
2019-03-12T02:23:01.985Z,17.00
2019-03-12T02:25:31.035Z,20.30
2019-03-12T02:28:00.102Z,16.60
2019-03-12T02:30:29.589Z,20.03
2019-03-12T02:32:58.762Z,16.60
2019-03-12T02:35:30.032Z,19.97
2019-03-12T02:37:59.490Z,18.80
2019-03-12T02:40:28.536Z,16.27
2019-03-12T02:42:57.920Z,18.30
2019-03-12T02:45:26.961Z,16.90
2019-03-12T02:47:56.107Z,18.00
2019-03-12T02:50:25.495Z,16.43
2019-03-12T02:52:54.492Z,14.33
2019-03-12T02:55:23.867Z,18.50
2019-03-12T02:57:52.960Z,20.20
2019-03-12T03:00:22.482Z,15.57
2019-03-12T03:02:51.561Z,18.17
2019-03-12T03:05:20.912Z,15.53
2019-03-12T03:07:52.025Z,19.83
2019-03-12T03:10:21.431Z,16.37
2019-03-12T03:12:50.743Z,15.47
2019-03-12T03:15:21.926Z,20.93
2019-03-12T03:17:50.972Z,14.63
2019-03-12T03:20:20.009Z,18.77
2019-03-12T03:22:49.212Z,19.33
2019-03-12T03:25:18.510Z,12.53
2019-03-12T03:27:47.519Z,15.23
2019-03-12T03:30:19.016Z,14.30
2019-03-12T03:32:48.010Z,12.40
2019-03-12T03:35:17.736Z,14.93
2019-03-12T03:37:46.750Z,17.97
2019-03-12T03:40:17.737Z,11.97
2019-03-12T03:42:46.924Z,15.37
2019-03-12T03:45:16.047Z,15.80
2019-03-12T03:47:45.448Z,14.30
2019-03-12T03:50:14.983Z,16.93
2019-03-12T03:52:43.987Z,12.73
2019-03-12T03:55:14.737Z,10.43
2019-03-12T03:57:43.917Z,18.17
2019-03-12T04:00:15.941Z,12.83
2019-03-12T04:02:45.361Z,15.10
2019-03-12T04:05:14.402Z,13.80
2019-03-12T04:07:43.422Z,13.27
2019-03-12T04:10:13.200Z,14.30
2019-03-12T04:12:42.668Z,16.03
2019-03-12T04:15:12.229Z,9.00
2019-03-12T04:17:41.317Z,11.57
2019-03-12T04:20:10.345Z,16.53
2019-03-12T04:22:39.372Z,16.10
2019-03-12T04:25:08.972Z,13.10
2019-03-12T04:27:38.008Z,13.00
2019-03-12T04:30:07.578Z,10.40
2019-03-12T04:32:36.603Z,13.43
2019-03-12T04:35:06.991Z,14.43
2019-03-12T04:37:36.016Z,13.67
2019-03-12T04:40:05.849Z,10.60
2019-03-12T04:42:34.874Z,11.87
2019-03-12T04:45:04.156Z,13.77
2019-03-12T04:47:33.208Z,11.30
2019-03-12T04:50:02.308Z,13.80
2019-03-12T04:52:31.790Z,11.83
2019-03-12T04:55:00.818Z,14.10
2019-03-12T04:57:29.828Z,11.80
2019-03-12T04:59:58.911Z,9.10
2019-03-12T05:02:27.900Z,8.60
2019-03-12T05:04:56.910Z,15.87
2019-03-12T05:07:26.065Z,18.10
2019-03-12T05:09:55.068Z,13.30
2019-03-12T05:12:24.179Z,8.03
2019-03-12T05:14:53.225Z,11.07
2019-03-12T05:17:30.226Z,15.10
2019-03-12T05:19:59.628Z,12.23
2019-03-12T05:22:28.648Z,12.33
2019-03-12T05:24:58.275Z,14.33
2019-03-12T05:27:27.669Z,13.30
2019-03-12T05:29:57.071Z,13.50
2019-03-12T05:32:26.142Z,13.37
2019-03-12T05:34:55.261Z,10.07
2019-03-12T05:37:24.867Z,10.90
2019-03-12T05:39:53.941Z,15.33
2019-03-12T05:42:23.750Z,16.50
2019-03-12T05:44:52.762Z,9.10
2019-03-12T05:47:21.855Z,12.10
2019-03-12T05:49:51.478Z,14.50
2019-03-12T05:52:21.152Z,13.57
2019-03-12T05:54:50.624Z,11.97
2019-03-12T05:57:19.996Z,10.70
2019-03-12T05:59:49.036Z,11.07
2019-03-12T06:02:18.393Z,11.53
2019-03-12T06:04:47.415Z,13.00
2019-03-12T06:07:16.763Z,11.10
2019-03-12T06:09:45.774Z,11.50
2019-03-12T06:12:14.870Z,13.30
2019-03-12T06:14:44.251Z,15.63
2019-03-12T06:17:13.559Z,11.33
2019-03-12T06:19:42.938Z,9.93
2019-03-12T06:22:12.346Z,9.50
2019-03-12T06:24:41.776Z,11.80
2019-03-12T06:27:13.899Z,10.03
2019-03-12T06:29:43.005Z,16.13
2019-03-12T06:32:19.158Z,12.97
2019-03-12T06:34:52.282Z,12.33
2019-03-12T06:37:37.159Z,13.27
2019-03-12T06:40:38.291Z,11.47
2019-03-12T06:43:29.514Z,11.93
2019-03-12T06:46:06.570Z,13.27
2019-03-12T06:48:43.857Z,14.67
2019-03-12T06:51:23.318Z,10.23
2019-03-12T06:54:10.130Z,8.47
2019-03-12T06:57:16.729Z,9.03
2019-03-12T07:00:11.054Z,12.93
2019-03-12T07:02:56.178Z,13.73
2019-03-12T07:05:43.243Z,16.17
2019-03-12T07:08:23.745Z,10.17
2019-03-12T07:11:18.050Z,11.40
2019-03-12T07:13:54.604Z,12.30
2019-03-12T07:16:46.043Z,13.90
2019-03-12T07:19:32.754Z,10.90
2019-03-12T07:22:09.090Z,12.17
2019-03-12T07:24:50.172Z,14.40
2019-03-12T07:27:28.262Z,16.60
2019-03-12T07:30:13.642Z,15.07
2019-03-12T07:32:50.982Z,14.80
2019-03-12T07:35:43.172Z,10.03
2019-03-12T07:38:40.477Z,12.87
2019-03-12T07:41:32.227Z,13.47
2019-03-12T07:44:10.748Z,11.97
2019-03-12T07:47:04.936Z,11.33
2019-03-12T07:49:52.778Z,11.20
2019-03-12T07:52:46.920Z,11.37
2019-03-12T07:55:37.671Z,14.27
2019-03-12T07:58:35.137Z,17.13
2019-03-12T08:01:19.900Z,10.20
2019-03-12T08:04:13.832Z,11.93
2019-03-12T08:07:00.492Z,7.97
2019-03-12T08:09:42.388Z,13.10
2019-03-12T08:12:18.840Z,11.33
2019-03-12T08:15:22.276Z,14.97
2019-03-12T08:17:58.486Z,8.47
2019-03-12T08:20:33.409Z,16.13
2019-03-12T08:23:15.918Z,13.87
2019-03-12T08:26:11.467Z,11.50
2019-03-12T08:28:56.578Z,15.40
2019-03-12T08:31:36.771Z,12.67
2019-03-12T08:34:23.675Z,12.63
2019-03-12T08:37:02.922Z,11.80
2019-03-12T08:39:56.823Z,11.77
2019-03-12T08:42:54.455Z,13.10
2019-03-12T08:45:36.191Z,9.53
2019-03-12T08:48:23.322Z,11.23
2019-03-12T08:51:17.268Z,13.40
2019-03-12T08:54:05.634Z,12.77
2019-03-12T08:56:53.570Z,15.10
2019-03-12T08:59:44.889Z,11.40
2019-03-12T09:02:31.308Z,8.57
2019-03-12T09:05:22.577Z,10.33
2019-03-12T09:08:05.646Z,9.57
2019-03-12T09:10:52.360Z,10.63
2019-03-12T09:13:58.933Z,14.17
2019-03-12T09:16:45.920Z,14.63
2019-03-12T09:19:49.045Z,12.77
2019-03-12T09:22:28.242Z,13.07
2019-03-12T09:25:03.594Z,10.97
2019-03-12T09:27:48.143Z,9.40
2019-03-12T09:30:45.262Z,11.07
2019-03-12T09:33:20.350Z,13.20
2019-03-12T09:36:11.411Z,10.53
2019-03-12T09:38:58.315Z,7.90
2019-03-12T09:41:46.300Z,14.17
2019-03-12T09:44:53.038Z,11.47
2019-03-12T09:47:41.138Z,9.73
2019-03-12T09:50:26.604Z,9.37
2019-03-12T09:53:08.741Z,12.17
2019-03-12T09:55:47.318Z,11.57
2019-03-12T09:58:30.568Z,12.00
2019-03-12T10:01:18.592Z,13.07
2019-03-12T10:04:09.491Z,9.20
2019-03-12T10:07:13.460Z,10.03
2019-03-12T10:09:59.539Z,10.00
2019-03-12T10:12:59.484Z,15.80
2019-03-12T10:15:47.484Z,13.23
2019-03-12T10:18:27.222Z,15.43
2019-03-12T10:21:05.821Z,13.77
2019-03-12T10:23:45.503Z,11.70
2019-03-12T10:26:22.723Z,13.20
2019-03-12T10:28:59.802Z,9.50
2019-03-12T10:31:57.107Z,15.23
2019-03-12T10:34:53.987Z,10.53
2019-03-12T10:37:40.578Z,8.70
2019-03-12T10:40:19.379Z,10.00
2019-03-12T10:43:25.385Z,10.03
2019-03-12T10:46:08.052Z,7.63
2019-03-12T10:48:37.485Z,12.37
2019-03-12T10:51:06.864Z,12.10
2019-03-12T10:53:35.903Z,11.67
2019-03-12T10:56:05.283Z,10.20
2019-03-12T10:58:34.315Z,9.37
2019-03-12T11:01:03.700Z,10.80
2019-03-12T11:03:32.709Z,10.83
2019-03-12T11:06:01.970Z,12.83
2019-03-12T11:08:31.321Z,12.37
2019-03-12T11:11:00.778Z,12.50
2019-03-12T11:13:29.788Z,10.47
2019-03-12T11:15:59.249Z,10.23
2019-03-12T11:18:28.265Z,11.13
2019-03-12T11:20:58.855Z,10.43
2019-03-12T11:23:28.550Z,10.13
2019-03-12T11:25:57.942Z,15.57
2019-03-12T11:28:27.016Z,10.33
2019-03-12T11:30:56.186Z,11.73
2019-03-12T11:33:25.635Z,12.87
2019-03-12T11:35:54.689Z,10.80
2019-03-12T11:38:23.975Z,11.30
2019-03-12T11:40:53.479Z,10.50
2019-03-12T11:43:22.522Z,12.10
2019-03-12T11:45:51.831Z,11.63
2019-03-12T11:48:20.880Z,10.93
2019-03-12T11:50:49.945Z,13.87
2019-03-12T11:53:18.979Z,10.30
2019-03-12T11:55:47.994Z,15.47
2019-03-12T11:58:17.523Z,12.17
2019-03-12T12:00:51.494Z,10.77
2019-03-12T12:03:20.504Z,13.37
2019-03-12T12:05:49.591Z,8.80
2019-03-12T12:08:19.015Z,10.07
2019-03-12T12:10:48.693Z,11.63
2019-03-12T12:13:18.612Z,17.90
2019-03-12T12:15:47.648Z,8.20
2019-03-12T12:18:17.065Z,15.40
2019-03-12T12:20:46.129Z,12.30
2019-03-12T12:23:15.544Z,15.80
2019-03-12T12:25:44.630Z,10.90
2019-03-12T12:28:13.649Z,10.93
2019-03-12T12:30:42.680Z,9.80
2019-03-12T12:33:11.996Z,8.97
2019-03-12T12:35:41.045Z,9.57
2019-03-12T12:38:10.087Z,11.87
2019-03-12T12:40:39.386Z,12.30
2019-03-12T12:43:08.500Z,11.60
2019-03-12T12:45:37.925Z,13.73
2019-03-12T12:48:06.964Z,13.93
2019-03-12T12:50:36.017Z,10.43
2019-03-12T12:53:05.032Z,7.63
2019-03-12T12:55:34.072Z,10.33
2019-03-12T12:58:03.499Z,14.03
2019-03-12T13:00:32.981Z,8.97
2019-03-12T13:03:02.023Z,6.40
2019-03-12T13:05:31.085Z,8.90
2019-03-12T13:08:00.120Z,11.03
2019-03-12T13:10:29.181Z,7.37
2019-03-12T13:12:58.325Z,8.63
2019-03-12T13:15:27.762Z,9.73
2019-03-12T13:17:56.820Z,9.23
2019-03-12T13:20:25.883Z,11.37
2019-03-12T13:22:54.903Z,9.77
2019-03-12T13:25:23.990Z,7.40
2019-03-12T13:27:53.393Z,8.23
2019-03-12T13:30:23.039Z,5.83
2019-03-12T13:32:52.546Z,9.17
2019-03-12T13:35:21.557Z,7.17
2019-03-12T13:37:51.274Z,5.63
2019-03-12T13:40:20.634Z,7.43
2019-03-12T13:42:49.691Z,10.87
2019-03-12T13:45:19.502Z,9.93
2019-03-12T13:47:48.540Z,8.30
2019-03-12T13:50:18.221Z,13.10
2019-03-12T13:52:47.469Z,8.00
2019-03-12T13:55:16.716Z,10.70
2019-03-12T13:57:45.999Z,8.93
2019-03-12T14:00:17.407Z,7.50
2019-03-12T14:02:46.861Z,7.70
2019-03-12T14:05:15.881Z,7.20
2019-03-12T14:07:44.964Z,7.97
2019-03-12T14:10:19.093Z,7.30
2019-03-12T14:12:48.153Z,6.63
2019-03-12T14:15:20.575Z,8.20
2019-03-12T14:17:49.649Z,13.40
2019-03-12T14:20:42.760Z,5.77
2019-03-12T14:23:13.514Z,7.73
2019-03-12T14:25:42.557Z,7.10
2019-03-12T14:28:11.565Z,9.20
2019-03-12T14:30:40.758Z,11.73
2019-03-12T14:33:09.768Z,5.43
2019-03-12T14:35:50.819Z,7.60
2019-03-12T14:38:10.122Z,6.63
2019-03-12T14:40:39.191Z,8.63
2019-03-12T14:43:08.633Z,8.97
2019-03-12T14:45:38.960Z,6.90
2019-03-12T14:48:22.561Z,11.23
2019-03-12T14:50:51.650Z,9.77
2019-03-12T14:53:22.079Z,8.40
2019-03-12T14:55:51.378Z,7.60
2019-03-12T14:58:20.838Z,7.63
2019-03-12T15:00:49.963Z,11.33
2019-03-12T15:03:19.007Z,8.40
2019-03-12T15:05:48.151Z,7.63
2019-03-12T15:08:20.045Z,11.03
2019-03-12T15:10:49.084Z,10.07
2019-03-12T15:13:18.106Z,14.93
2019-03-12T15:15:47.487Z,9.67
2019-03-12T15:18:16.513Z,11.30
2019-03-12T15:20:45.566Z,9.87
2019-03-12T15:23:14.601Z,6.20
2019-03-12T15:25:44.929Z,7.10
2019-03-12T15:28:17.117Z,9.40
2019-03-12T15:30:46.237Z,7.13
2019-03-12T15:33:15.307Z,8.70
2019-03-12T15:35:44.346Z,8.50
2019-03-12T15:38:13.373Z,10.50
2019-03-12T15:40:42.495Z,6.90
2019-03-12T15:43:11.564Z,9.27
2019-03-12T15:45:40.897Z,10.40
2019-03-12T15:48:09.907Z,7.77
2019-03-12T15:50:39.029Z,7.63
2019-03-12T15:53:08.166Z,10.47
2019-03-12T15:55:37.176Z,8.30
2019-03-12T15:58:06.215Z,9.83
2019-03-12T16:00:35.248Z,8.70
2019-03-12T16:03:04.297Z,18.17
2019-03-12T16:05:33.366Z,10.70
2019-03-12T16:08:02.805Z,11.00
2019-03-12T16:10:32.565Z,7.67
2019-03-12T16:13:01.585Z,7.33
2019-03-12T16:15:31.069Z,9.17
2019-03-12T16:18:00.126Z,14.10
2019-03-12T16:20:29.923Z,4.77
2019-03-12T16:22:59.343Z,8.20
2019-03-12T16:25:28.361Z,10.73
2019-03-12T16:27:57.724Z,9.97
2019-03-12T16:30:26.755Z,13.83
2019-03-12T16:32:55.828Z,14.57
2019-03-12T16:35:25.194Z,10.13
2019-03-12T16:37:54.590Z,4.90
2019-03-12T16:40:23.704Z,8.90
2019-03-12T16:42:52.733Z,8.33
2019-03-12T16:45:22.073Z,10.60
2019-03-12T16:47:51.233Z,13.50
2019-03-12T16:50:20.563Z,7.73
2019-03-12T16:52:49.623Z,9.40
2019-03-12T16:55:18.732Z,8.70
2019-03-12T16:57:47.780Z,13.73
2019-03-12T17:00:17.492Z,14.93
2019-03-12T17:02:46.591Z,11.07
2019-03-12T17:05:15.841Z,5.43
2019-03-12T17:07:45.261Z,10.37
2019-03-12T17:10:14.985Z,10.23
2019-03-12T17:12:44.407Z,10.60
2019-03-12T17:15:14.198Z,6.80
2019-03-12T17:17:43.215Z,9.13
2019-03-12T17:20:12.505Z,12.47
2019-03-12T17:22:41.641Z,7.30
2019-03-12T17:25:10.991Z,6.83
2019-03-12T17:27:40.176Z,9.87
2019-03-12T17:30:12.742Z,11.00
2019-03-12T17:32:41.784Z,11.87
2019-03-12T17:35:11.776Z,8.07
2019-03-12T17:37:43.334Z,8.90
2019-03-12T17:40:15.479Z,12.37
2019-03-12T17:42:44.527Z,16.00
2019-03-12T17:45:13.993Z,11.10
2019-03-12T17:47:43.072Z,11.33
2019-03-12T17:50:12.540Z,8.53
2019-03-12T17:52:41.682Z,10.53
2019-03-12T17:55:11.559Z,9.13
2019-03-12T17:57:41.107Z,10.40
2019-03-12T18:00:16.100Z,8.20
2019-03-12T18:02:45.457Z,4.43
2019-03-12T18:05:14.477Z,3.80
2019-03-12T18:07:43.866Z,4.53
2019-03-12T18:10:13.565Z,2.70
2019-03-12T18:12:43.257Z,2.57
2019-03-12T18:15:14.517Z,5.57
2019-03-12T18:17:43.628Z,5.07
2019-03-12T18:20:14.223Z,3.63
2019-03-12T18:22:45.083Z,3.87
2019-03-12T18:25:19.985Z,2.63
2019-03-12T18:27:49.453Z,4.83
2019-03-12T18:30:18.535Z,4.37
2019-03-12T18:32:47.565Z,3.37
2019-03-12T18:35:16.632Z,6.40
2019-03-12T18:37:45.663Z,5.37
2019-03-12T18:40:16.885Z,4.50
2019-03-12T18:42:46.001Z,4.60
2019-03-12T18:45:17.813Z,3.77
2019-03-12T18:47:47.219Z,7.70
2019-03-12T18:50:16.390Z,5.17
2019-03-12T18:52:45.754Z,2.90
2019-03-12T18:55:44.231Z,4.33
2019-03-12T18:58:13.319Z,5.50
2019-03-12T19:00:43.780Z,2.27
2019-03-12T19:03:12.822Z,1.73
2019-03-12T19:05:41.851Z,2.20
2019-03-12T19:08:10.849Z,2.23
2019-03-12T19:10:39.866Z,3.03
2019-03-12T19:13:09.257Z,5.30
2019-03-12T19:15:38.591Z,4.37
2019-03-12T19:18:08.013Z,5.07
2019-03-12T19:20:37.501Z,4.37
2019-03-12T19:23:06.949Z,5.90
2019-03-12T19:25:38.315Z,3.93
2019-03-12T19:28:07.349Z,3.17
2019-03-12T19:30:36.757Z,2.60
2019-03-12T19:33:08.504Z,4.13
2019-03-12T19:35:37.640Z,4.20
2019-03-12T19:38:06.679Z,3.90
2019-03-12T19:40:36.137Z,8.57
2019-03-12T19:43:05.159Z,3.90
2019-03-12T19:45:34.469Z,3.63
2019-03-12T19:48:03.934Z,2.37
2019-03-12T19:50:32.966Z,2.50
2019-03-12T19:53:02.059Z,2.60
2019-03-12T19:55:34.406Z,5.27
2019-03-12T19:58:04.176Z,2.33
2019-03-12T20:00:33.897Z,2.70
2019-03-12T20:03:11.796Z,3.27
2019-03-12T20:05:33.856Z,3.97
2019-03-12T20:08:03.056Z,2.90
2019-03-12T20:11:06.727Z,3.47
2019-03-12T20:14:40.978Z,4.27
2019-03-12T20:17:41.023Z,2.20
2019-03-12T20:20:49.907Z,3.37
2019-03-12T20:24:01.986Z,2.37
2019-03-12T20:27:02.242Z,2.73
2019-03-12T20:30:10.993Z,3.53
2019-03-12T20:33:04.654Z,1.03
2019-03-12T20:36:25.838Z,2.93
2019-03-12T20:39:32.065Z,5.53
2019-03-12T20:42:39.001Z,3.23
2019-03-12T20:46:03.029Z,3.60
2019-03-12T20:49:31.264Z,4.07
2019-03-12T20:52:39.970Z,2.73
2019-03-12T20:55:47.841Z,7.03
2019-03-12T20:58:52.823Z,5.20
2019-03-12T21:02:08.428Z,4.70
2019-03-12T21:05:17.032Z,4.47
2019-03-12T21:08:30.350Z,3.47
2019-03-12T21:11:46.612Z,5.77
2019-03-12T21:14:59.698Z,6.90
2019-03-12T21:18:06.012Z,6.43
2019-03-12T21:21:23.658Z,9.07
2019-03-12T21:24:24.364Z,2.20
2019-03-12T21:27:30.357Z,5.20
2019-03-12T21:29:57.827Z,4.63
2019-03-12T21:32:26.819Z,8.37
2019-03-12T21:34:56.724Z,6.43
2019-03-12T21:37:25.787Z,9.73
2019-03-12T21:39:56.175Z,5.00
2019-03-12T21:42:25.831Z,4.90
2019-03-12T21:44:54.953Z,5.50
2019-03-12T21:47:24.332Z,3.70
2019-03-12T21:49:53.384Z,4.50
2019-03-12T21:52:22.476Z,7.60
2019-03-12T21:54:51.540Z,6.17
2019-03-12T21:57:20.571Z,4.40
2019-03-12T21:59:49.599Z,6.83
2019-03-12T22:02:19.318Z,6.57
2019-03-12T22:04:48.342Z,4.13
2019-03-12T22:07:17.494Z,7.07
2019-03-12T22:09:46.912Z,6.40
2019-03-12T22:12:16.306Z,8.83
2019-03-12T22:14:45.434Z,7.13
2019-03-12T22:17:14.508Z,12.27
2019-03-12T22:19:43.902Z,7.97
2019-03-12T22:22:24.240Z,8.77
2019-03-12T22:24:53.578Z,13.10
2019-03-12T22:27:22.636Z,7.43
2019-03-12T22:29:51.662Z,11.63
2019-03-12T22:32:20.953Z,9.90
2019-03-12T22:34:50.008Z,10.07
2019-03-12T22:37:19.351Z,12.80
2019-03-12T22:39:48.432Z,13.80
2019-03-12T22:42:17.462Z,10.03
2019-03-12T22:44:46.881Z,9.97
2019-03-12T22:47:15.997Z,11.63
2019-03-12T22:49:45.747Z,9.23
2019-03-12T22:52:14.791Z,8.97
2019-03-12T22:54:44.192Z,8.63
2019-03-12T22:57:13.560Z,14.37
2019-03-12T22:59:42.963Z,9.03
2019-03-12T23:02:12.028Z,9.27
2019-03-12T23:04:41.141Z,10.87
2019-03-12T23:07:10.190Z,11.00
2019-03-12T23:09:39.453Z,8.87
2019-03-12T23:12:08.457Z,10.30
2019-03-12T23:14:37.512Z,11.17
2019-03-12T23:17:06.595Z,15.10
2019-03-12T23:19:35.676Z,13.33
2019-03-12T23:22:04.733Z,12.13
2019-03-12T23:24:33.739Z,10.80
2019-03-12T23:27:02.792Z,11.87
2019-03-12T23:29:31.855Z,15.93
2019-03-12T23:32:01.212Z,10.30
2019-03-12T23:34:30.284Z,8.07
2019-03-12T23:36:59.311Z,11.57
2019-03-12T23:39:28.308Z,13.30
2019-03-12T23:41:57.736Z,17.30
2019-03-12T23:44:26.747Z,11.20
2019-03-12T23:46:55.745Z,14.40
2019-03-12T23:49:24.901Z,10.37
2019-03-12T23:51:54.308Z,12.23
2019-03-12T23:54:24.180Z,14.47
2019-03-12T23:56:53.510Z,14.30
2019-03-12T23:59:22.571Z,10.77
